sensor_id;sensor_type;location;lat;lon;timestamp;pressure;altitude;pressure_sealevel;temperature;humidity
45327;BME280;31062;49.678;24.560;2022-11-15T00:01:18;98631.81;;;5.55;81.24
45327;BME280;31062;49.678;24.560;2022-11-15T00:04:22;98719.06;;;6.07;80.76
45327;BME280;31062;49.678;24.560;2022-11-15T00:07:26;98720.59;;;6.15;80.97
45327;BME280;31062;49.678;24.560;2022-11-15T00:10:55;98501.09;;;4.73;80.47
45327;BME280;31062;49.678;24.560;2022-11-15T00:14:00;98516.75;;;4.65;80.71
45327;BME280;31062;49.678;24.560;2022-11-15T00:17:06;98524.00;;;4.88;80.44
45327;BME280;31062;49.678;24.560;2022-11-15T00:20:10;98651.25;;;5.83;81.13
45327;BME280;31062;49.678;24.560;2022-11-15T00:23:15;98687.06;;;6.04;81.11
45327;BME280;31062;49.678;24.560;2022-11-15T00:26:20;98645.66;;;5.75;81.15
45327;BME280;31062;49.678;24.560;2022-11-15T00:29:24;98503.19;;;4.80;80.50
45327;BME280;31062;49.678;24.560;2022-11-15T00:32:32;98650.81;;;5.79;81.11
45327;BME280;31062;49.678;24.560;2022-11-15T00:35:36;98598.66;;;5.40;81.00
45327;BME280;31062;49.678;24.560;2022-11-15T00:38:40;98608.25;;;5.46;80.98
45327;BME280;31062;49.678;24.560;2022-11-15T00:41:45;98705.59;;;6.03;81.24
45327;BME280;31062;49.678;24.560;2022-11-15T00:44:49;98684.91;;;5.76;81.09
45327;BME280;31062;49.678;24.560;2022-11-15T00:47:53;98531.81;;;4.98;80.79
45327;BME280;31062;49.678;24.560;2022-11-15T00:50:57;98486.41;;;4.70;80.64
45327;BME280;31062;49.678;24.560;2022-11-15T00:54:02;98636.00;;;5.82;80.68
45327;BME280;31062;49.678;24.560;2022-11-15T00:57:06;98608.53;;;5.69;80.85
45327;BME280;31062;49.678;24.560;2022-11-15T01:00:11;98644.44;;;5.97;80.67
45327;BME280;31062;49.678;24.560;2022-11-15T01:03:16;98658.56;;;6.14;80.33
45327;BME280;31062;49.678;24.560;2022-11-15T01:06:20;98649.75;;;5.82;80.55
45327;BME280;31062;49.678;24.560;2022-11-15T01:09:24;98474.22;;;4.92;80.06
45327;BME280;31062;49.678;24.560;2022-11-15T01:12:28;98660.47;;;6.20;80.24
45327;BME280;31062;49.678;24.560;2022-11-15T01:15:32;98471.69;;;4.94;80.53
45327;BME280;31062;49.678;24.560;2022-11-15T01:18:37;98563.16;;;5.62;80.13
45327;BME280;31062;49.678;24.560;2022-11-15T01:21:41;98460.72;;;4.94;79.81
45327;BME280;31062;49.678;24.560;2022-11-15T01:24:46;98663.81;;;6.26;80.39
45327;BME280;31062;49.678;24.560;2022-11-15T01:27:50;98630.28;;;5.80;80.28
45327;BME280;31062;49.678;24.560;2022-11-15T01:30:58;98464.53;;;4.78;79.68
45327;BME280;31062;49.678;24.560;2022-11-15T01:34:02;98479.94;;;4.94;80.70
45327;BME280;31062;49.678;24.560;2022-11-15T01:37:06;98636.78;;;6.03;80.36
45327;BME280;31062;49.678;24.560;2022-11-15T01:40:10;98609.75;;;5.81;80.36
45327;BME280;31062;49.678;24.560;2022-11-15T01:43:23;98626.66;;;5.98;80.54
45327;BME280;31062;49.678;24.560;2022-11-15T01:46:34;98443.63;;;4.75;80.29
45327;BME280;31062;49.678;24.560;2022-11-15T01:49:44;98459.13;;;4.85;81.14
45327;BME280;31062;49.678;24.560;2022-11-15T01:52:50;98626.88;;;6.00;80.86
45327;BME280;31062;49.678;24.560;2022-11-15T01:55:55;98603.84;;;5.77;81.17
45327;BME280;31062;49.678;24.560;2022-11-15T01:59:03;98583.75;;;5.69;81.20
45327;BME280;31062;49.678;24.560;2022-11-15T02:02:08;98476.00;;;4.89;81.13
45327;BME280;31062;49.678;24.560;2022-11-15T02:05:12;98426.72;;;4.71;81.22
45327;BME280;31062;49.678;24.560;2022-11-15T02:08:17;98402.44;;;4.62;80.76
45327;BME280;31062;49.678;24.560;2022-11-15T02:11:24;98595.38;;;5.88;81.64
45327;BME280;31062;49.678;24.560;2022-11-15T02:14:29;98600.00;;;5.93;81.52
45327;BME280;31062;49.678;24.560;2022-11-15T02:24:48;98617.56;;;5.90;82.05
45327;BME280;31062;49.678;24.560;2022-11-15T02:28:25;98632.41;;;5.87;81.45
45327;BME280;31062;49.678;24.560;2022-11-15T02:38:26;98399.72;;;4.48;82.03
45327;BME280;31062;49.678;24.560;2022-11-15T02:41:39;98628.16;;;5.86;82.24
45327;BME280;31062;49.678;24.560;2022-11-15T02:44:45;98596.66;;;5.87;81.84
45327;BME280;31062;49.678;24.560;2022-11-15T02:47:52;98597.38;;;5.88;81.88
45327;BME280;31062;49.678;24.560;2022-11-15T02:50:59;98526.69;;;5.28;82.21
45327;BME280;31062;49.678;24.560;2022-11-15T02:54:04;98588.59;;;5.89;82.00
45327;BME280;31062;49.678;24.560;2022-11-15T02:57:16;98505.69;;;5.04;81.83
45327;BME280;31062;49.678;24.560;2022-11-15T03:00:22;98613.03;;;5.80;82.37
45327;BME280;31062;49.678;24.560;2022-11-15T03:03:48;98585.13;;;5.75;82.67
45327;BME280;31062;49.678;24.560;2022-11-15T03:07:05;98520.91;;;5.05;82.68
45327;BME280;31062;49.678;24.560;2022-11-15T03:10:23;98583.16;;;5.63;82.90
45327;BME280;31062;49.678;24.560;2022-11-15T03:13:36;98581.28;;;5.58;82.98
45327;BME280;31062;49.678;24.560;2022-11-15T03:17:08;98567.50;;;5.58;83.26
45327;BME280;31062;49.678;24.560;2022-11-15T03:20:16;98381.47;;;4.25;83.05
45327;BME280;31062;49.678;24.560;2022-11-15T03:23:21;98371.66;;;4.29;83.17
45327;BME280;31062;49.678;24.560;2022-11-15T03:26:26;98567.00;;;5.59;83.41
45327;BME280;31062;49.678;24.560;2022-11-15T03:29:38;98400.16;;;4.53;82.88
45327;BME280;31062;49.678;24.560;2022-11-15T03:32:47;98505.44;;;5.28;83.27
45327;BME280;31062;49.678;24.560;2022-11-15T03:35:53;98585.91;;;5.63;83.30
45327;BME280;31062;49.678;24.560;2022-11-15T03:39:01;98539.19;;;5.50;83.27
45327;BME280;31062;49.678;24.560;2022-11-15T03:45:31;98518.97;;;5.13;83.26
45327;BME280;31062;49.678;24.560;2022-11-15T03:48:51;98556.94;;;5.49;83.19
45327;BME280;31062;49.678;24.560;2022-11-15T03:51:58;98580.19;;;5.61;83.01
45327;BME280;31062;49.678;24.560;2022-11-15T03:55:04;98564.69;;;5.50;83.41
45327;BME280;31062;49.678;24.560;2022-11-15T03:58:10;98550.88;;;5.63;83.31
45327;BME280;31062;49.678;24.560;2022-11-15T04:01:14;98551.44;;;5.49;83.47
45327;BME280;31062;49.678;24.560;2022-11-15T04:04:19;98540.88;;;5.53;83.14
45327;BME280;31062;49.678;24.560;2022-11-15T04:07:23;98530.28;;;5.57;83.31
45327;BME280;31062;49.678;24.560;2022-11-15T04:10:28;98530.28;;;5.57;83.27
45327;BME280;31062;49.678;24.560;2022-11-15T04:13:32;98519.94;;;5.50;83.29
45327;BME280;31062;49.678;24.560;2022-11-15T04:16:36;98306.69;;;4.11;83.51
45327;BME280;31062;49.678;24.560;2022-11-15T04:19:46;98353.91;;;4.43;83.34
45327;BME280;31062;49.678;24.560;2022-11-15T04:26:36;98521.16;;;5.62;83.24
45327;BME280;31062;49.678;24.560;2022-11-15T04:29:40;98345.06;;;4.37;83.38
45327;BME280;31062;49.678;24.560;2022-11-15T04:32:45;98479.72;;;5.26;82.98
45327;BME280;31062;49.678;24.560;2022-11-15T04:35:49;98428.38;;;4.87;83.51
45327;BME280;31062;49.678;24.560;2022-11-15T04:39:12;98516.66;;;5.51;83.43
45327;BME280;31062;49.678;24.560;2022-11-15T04:42:16;98428.81;;;4.78;83.37
45327;BME280;31062;49.678;24.560;2022-11-15T04:45:20;98532.31;;;5.43;83.46
45327;BME280;31062;49.678;24.560;2022-11-15T04:48:25;98494.84;;;5.32;83.39
45327;BME280;31062;49.678;24.560;2022-11-15T04:51:29;98401.59;;;4.67;83.48
45327;BME280;31062;49.678;24.560;2022-11-15T04:54:33;98501.81;;;5.33;83.85
45327;BME280;31062;49.678;24.560;2022-11-15T04:57:38;98453.69;;;5.06;84.02
45327;BME280;31062;49.678;24.560;2022-11-15T05:00:42;98453.88;;;5.08;83.97
45327;BME280;31062;49.678;24.560;2022-11-15T05:03:46;98405.19;;;4.75;83.94
45327;BME280;31062;49.678;24.560;2022-11-15T05:07:09;98277.91;;;3.91;84.06
45327;BME280;31062;49.678;24.560;2022-11-15T05:10:14;98500.41;;;5.40;84.37
45327;BME280;31062;49.678;24.560;2022-11-15T05:13:18;98481.22;;;5.27;84.49
45327;BME280;31062;49.678;24.560;2022-11-15T05:16:22;98532.66;;;5.40;84.75
45327;BME280;31062;49.678;24.560;2022-11-15T05:19:27;98470.97;;;5.27;84.53
45327;BME280;31062;49.678;24.560;2022-11-15T05:22:31;98453.25;;;5.15;84.23
45327;BME280;31062;49.678;24.560;2022-11-15T05:25:35;98437.84;;;5.12;84.35
45327;BME280;31062;49.678;24.560;2022-11-15T05:28:40;98486.13;;;5.42;84.55
45327;BME280;31062;49.678;24.560;2022-11-15T05:31:44;98306.53;;;4.30;84.09
45327;BME280;31062;49.678;24.560;2022-11-15T05:34:48;98482.53;;;5.47;84.06
45327;BME280;31062;49.678;24.560;2022-11-15T05:37:52;98472.91;;;5.40;83.85
45327;BME280;31062;49.678;24.560;2022-11-15T05:40:57;98427.88;;;5.09;84.34
45327;BME280;31062;49.678;24.560;2022-11-15T05:44:03;98492.03;;;5.46;84.42
45327;BME280;31062;49.678;24.560;2022-11-15T05:47:14;98493.53;;;5.47;84.29
45327;BME280;31062;49.678;24.560;2022-11-15T05:50:21;98407.22;;;4.95;84.62
45327;BME280;31062;49.678;24.560;2022-11-15T05:53:25;98481.69;;;5.39;84.80
45327;BME280;31062;49.678;24.560;2022-11-15T05:56:30;98450.69;;;5.17;84.57
45327;BME280;31062;49.678;24.560;2022-11-15T05:59:35;98479.16;;;5.41;84.70
45327;BME280;31062;49.678;24.560;2022-11-15T06:02:41;98441.22;;;5.05;84.79
45327;BME280;31062;49.678;24.560;2022-11-15T06:05:46;98269.16;;;3.93;84.88
45327;BME280;31062;49.678;24.560;2022-11-15T06:08:50;98468.09;;;5.33;84.86
45327;BME280;31062;49.678;24.560;2022-11-15T06:11:55;98409.81;;;4.80;85.15
45327;BME280;31062;49.678;24.560;2022-11-15T06:14:59;98472.94;;;5.06;85.21
45327;BME280;31062;49.678;24.560;2022-11-15T06:18:03;98474.97;;;5.26;85.13
45327;BME280;31062;49.678;24.560;2022-11-15T06:21:07;98273.56;;;3.96;84.55
45327;BME280;31062;49.678;24.560;2022-11-15T06:24:12;98260.31;;;3.87;85.03
45327;BME280;31062;49.678;24.560;2022-11-15T06:27:17;98267.34;;;3.95;85.48
45327;BME280;31062;49.678;24.560;2022-11-15T06:30:22;98311.84;;;4.28;85.07
45327;BME280;31062;49.678;24.560;2022-11-15T06:33:26;98444.47;;;5.17;85.05
45327;BME280;31062;49.678;24.560;2022-11-15T06:36:31;98435.91;;;5.07;84.94
45327;BME280;31062;49.678;24.560;2022-11-15T06:39:37;98443.88;;;4.98;84.98
45327;BME280;31062;49.678;24.560;2022-11-15T06:42:41;98284.97;;;4.00;85.37
45327;BME280;31062;49.678;24.560;2022-11-15T06:45:46;98490.31;;;5.22;85.11
45327;BME280;31062;49.678;24.560;2022-11-15T06:48:51;98428.53;;;5.02;85.04
45327;BME280;31062;49.678;24.560;2022-11-15T06:51:56;98310.88;;;4.25;85.44
45327;BME280;31062;49.678;24.560;2022-11-15T06:55:00;98364.13;;;4.56;85.46
45327;BME280;31062;49.678;24.560;2022-11-15T06:58:04;98451.38;;;5.31;85.66
45327;BME280;31062;49.678;24.560;2022-11-15T07:01:11;98372.72;;;4.86;85.25
45327;BME280;31062;49.678;24.560;2022-11-15T07:04:15;98373.94;;;4.65;85.69
45327;BME280;31062;49.678;24.560;2022-11-15T07:07:20;98440.50;;;5.25;85.92
45327;BME280;31062;49.678;24.560;2022-11-15T07:10:25;98484.00;;;5.48;85.84
45327;BME280;31062;49.678;24.560;2022-11-15T07:13:30;98422.63;;;5.32;85.59
45327;BME280;31062;49.678;24.560;2022-11-15T07:16:38;98449.84;;;5.43;85.45
45327;BME280;31062;49.678;24.560;2022-11-15T07:19:43;98479.78;;;5.47;85.59
45327;BME280;31062;49.678;24.560;2022-11-15T07:22:47;98279.72;;;4.36;85.95
45327;BME280;31062;49.678;24.560;2022-11-15T07:25:52;98434.91;;;5.52;85.99
45327;BME280;31062;49.678;24.560;2022-11-15T07:28:57;98245.75;;;4.26;85.99
45327;BME280;31062;49.678;24.560;2022-11-15T07:32:01;98437.16;;;5.61;85.64
45327;BME280;31062;49.678;24.560;2022-11-15T07:35:06;98402.50;;;5.37;86.05
45327;BME280;31062;49.678;24.560;2022-11-15T07:38:10;98462.13;;;5.63;85.66
45327;BME280;31062;49.678;24.560;2022-11-15T07:41:14;98433.97;;;5.70;84.81
45327;BME280;31062;49.678;24.560;2022-11-15T07:44:19;98425.13;;;5.64;84.64
45327;BME280;31062;49.678;24.560;2022-11-15T07:47:23;98432.69;;;5.71;84.53
45327;BME280;31062;49.678;24.560;2022-11-15T07:50:27;98352.44;;;5.10;84.19
45327;BME280;31062;49.678;24.560;2022-11-15T07:53:34;98420.38;;;5.72;84.48
45327;BME280;31062;49.678;24.560;2022-11-15T07:56:39;98421.19;;;5.80;84.36
45327;BME280;31062;49.678;24.560;2022-11-15T07:59:43;98364.09;;;5.45;83.89
45327;BME280;31062;49.678;24.560;2022-11-15T08:02:48;98258.75;;;4.80;83.60
45327;BME280;31062;49.678;24.560;2022-11-15T08:05:52;98302.22;;;5.10;83.55
45327;BME280;31062;49.678;24.560;2022-11-15T08:08:56;98409.53;;;5.87;83.54
45327;BME280;31062;49.678;24.560;2022-11-15T08:12:01;98352.41;;;5.52;83.26
45327;BME280;31062;49.678;24.560;2022-11-15T08:15:06;98396.66;;;5.82;83.52
45327;BME280;31062;49.678;24.560;2022-11-15T08:18:12;98391.53;;;5.86;83.59
45327;BME280;31062;49.678;24.560;2022-11-15T08:21:19;98402.03;;;5.88;83.33
45327;BME280;31062;49.678;24.560;2022-11-15T08:24:24;98210.63;;;4.66;83.60
45327;BME280;31062;49.678;24.560;2022-11-15T08:27:28;98382.03;;;5.87;83.36
45327;BME280;31062;49.678;24.560;2022-11-15T08:30:36;98194.84;;;4.59;83.12
45327;BME280;31062;49.678;24.560;2022-11-15T08:33:41;98344.78;;;5.37;83.09
45327;BME280;31062;49.678;24.560;2022-11-15T08:36:45;98391.44;;;5.71;83.63
45327;BME280;31062;49.678;24.560;2022-11-15T08:39:50;98227.13;;;4.66;83.46
45327;BME280;31062;49.678;24.560;2022-11-15T08:42:55;98369.22;;;5.69;84.02
45327;BME280;31062;49.678;24.560;2022-11-15T08:45:59;98190.91;;;4.46;83.78
45327;BME280;31062;49.678;24.560;2022-11-15T08:49:03;98189.91;;;4.57;84.04
45327;BME280;31062;49.678;24.560;2022-11-15T08:52:08;98397.66;;;5.92;84.06
45327;BME280;31062;49.678;24.560;2022-11-15T08:55:12;98354.38;;;5.72;84.01
45327;BME280;31062;49.678;24.560;2022-11-15T08:58:18;98399.19;;;6.01;83.71
45327;BME280;31062;49.678;24.560;2022-11-15T09:01:24;98371.41;;;5.91;83.29
45327;BME280;31062;49.678;24.560;2022-11-15T09:04:28;98356.56;;;5.66;83.50
45327;BME280;31062;49.678;24.560;2022-11-15T09:07:33;98396.22;;;5.99;83.18
45327;BME280;31062;49.678;24.560;2022-11-15T09:10:37;98188.28;;;4.82;83.37
45327;BME280;31062;49.678;24.560;2022-11-15T09:13:42;98348.50;;;5.96;83.08
45327;BME280;31062;49.678;24.560;2022-11-15T09:16:46;98401.50;;;6.18;83.10
45327;BME280;31062;49.678;24.560;2022-11-15T09:19:50;98062.31;;;4.09;82.90
45327;BME280;31062;49.678;24.560;2022-11-15T09:23:00;98149.22;;;4.76;82.85
45327;BME280;31062;49.678;24.560;2022-11-15T09:26:05;98197.13;;;5.17;83.38
45327;BME280;31062;49.678;24.560;2022-11-15T09:29:10;98161.84;;;5.00;82.70
45327;BME280;31062;49.678;24.560;2022-11-15T09:32:14;98258.09;;;5.72;82.56
45327;BME280;31062;49.678;24.560;2022-11-15T09:35:19;98335.31;;;6.31;82.53
45327;BME280;31062;49.678;24.560;2022-11-15T09:38:23;98260.72;;;5.78;81.99
45327;BME280;31062;49.678;24.560;2022-11-15T09:51:49;98322.16;;;6.52;81.89
45327;BME280;31062;49.678;24.560;2022-11-15T09:54:40;98320.63;;;6.36;81.81
45327;BME280;31062;49.678;24.560;2022-11-15T09:58:10;98277.31;;;6.36;81.32
45327;BME280;31062;49.678;24.560;2022-11-15T10:01:07;98247.13;;;6.15;81.17
45327;BME280;31062;49.678;24.560;2022-11-15T10:04:00;98262.28;;;6.37;81.05
45327;BME280;31062;49.678;24.560;2022-11-15T10:10:01;98305.69;;;6.67;81.69
45327;BME280;31062;49.678;24.560;2022-11-15T10:12:50;98114.06;;;5.39;80.64
45327;BME280;31062;49.678;24.560;2022-11-15T10:15:37;98144.97;;;5.68;80.90
45327;BME280;31062;49.678;24.560;2022-11-15T10:18:40;98146.81;;;5.73;81.07
45327;BME280;31062;49.678;24.560;2022-11-15T10:21:42;98287.50;;;6.79;81.18
45327;BME280;31062;49.678;24.560;2022-11-15T10:24:35;98250.56;;;6.60;80.64
45327;BME280;31062;49.678;24.560;2022-11-15T10:27:23;98283.66;;;6.82;80.51
45327;BME280;31062;49.678;24.560;2022-11-15T10:30:15;98127.03;;;5.82;80.67
45327;BME280;31062;49.678;24.560;2022-11-15T10:33:17;98117.91;;;5.87;80.52
45327;BME280;31062;49.678;24.560;2022-11-15T10:38:58;98105.91;;;5.69;80.16
45327;BME280;31062;49.678;24.560;2022-11-15T10:41:44;98299.47;;;7.05;80.68
45327;BME280;31062;49.678;24.560;2022-11-15T10:44:30;98225.97;;;6.77;80.17
45327;BME280;31062;49.678;24.560;2022-11-15T10:47:28;98074.56;;;5.80;79.72
45327;BME280;31062;49.678;24.560;2022-11-15T10:50:30;98265.69;;;7.12;80.20
45327;BME280;31062;49.678;24.560;2022-11-15T10:53:26;98244.34;;;7.05;79.64
45327;BME280;31062;49.678;24.560;2022-11-15T10:56:28;98159.84;;;6.54;79.85
45327;BME280;31062;49.678;24.560;2022-11-15T10:59:16;98280.75;;;7.26;79.90
45327;BME280;31062;49.678;24.560;2022-11-15T11:11:00;98227.41;;;7.46;79.33
45327;BME280;31062;49.678;24.560;2022-11-15T11:13:48;98024.75;;;6.22;78.91
45327;BME280;31062;49.678;24.560;2022-11-15T11:16:41;98210.66;;;7.52;78.88
45327;BME280;31062;49.678;24.560;2022-11-15T11:25:51;98142.50;;;7.22;79.01
45327;BME280;31062;49.678;24.560;2022-11-15T11:28:43;98204.91;;;7.72;78.68
45327;BME280;31062;49.678;24.560;2022-11-15T11:34:50;98159.69;;;7.60;78.68
45327;BME280;31062;49.678;24.560;2022-11-15T11:37:47;98104.25;;;7.33;78.10
45327;BME280;31062;49.678;24.560;2022-11-15T11:40:44;98163.09;;;7.84;78.67
45327;BME280;31062;49.678;24.560;2022-11-15T11:46:48;98161.91;;;8.02;77.96
45327;BME280;31062;49.678;24.560;2022-11-15T11:52:35;97966.59;;;6.80;77.18
45327;BME280;31062;49.678;24.560;2022-11-15T11:58:34;98149.31;;;8.16;76.95
45327;BME280;31062;49.678;24.560;2022-11-15T12:01:26;98028.66;;;7.44;77.01
45327;BME280;31062;49.678;24.560;2022-11-15T12:07:12;98027.59;;;7.64;76.81
45327;BME280;31062;49.678;24.560;2022-11-15T12:10:27;98123.91;;;8.42;76.56
45327;BME280;31062;49.678;24.560;2022-11-15T12:13:21;98122.22;;;8.47;76.26
45327;BME280;31062;49.678;24.560;2022-11-15T12:16:23;98122.00;;;8.52;76.06
45327;BME280;31062;49.678;24.560;2022-11-15T12:19:10;98094.03;;;8.48;76.10
45327;BME280;31062;49.678;24.560;2022-11-15T12:22:23;98100.56;;;8.60;75.76
45327;BME280;31062;49.678;24.560;2022-11-15T12:25:35;97995.44;;;7.92;75.48
45327;BME280;31062;49.678;24.560;2022-11-15T12:28:50;98094.63;;;8.64;75.45
45327;BME280;31062;49.678;24.560;2022-11-15T12:31:54;98041.28;;;8.12;75.23
45327;BME280;31062;49.678;24.560;2022-11-15T12:34:46;98110.50;;;8.64;75.88
45327;BME280;31062;49.678;24.560;2022-11-15T12:40:29;98092.31;;;8.78;75.25
45327;BME280;31062;49.678;24.560;2022-11-15T12:46:03;98082.41;;;8.75;75.06
45327;BME280;31062;49.678;24.560;2022-11-15T13:03:18;97902.34;;;7.67;74.13
45327;BME280;31062;49.678;24.560;2022-11-15T13:06:06;97986.47;;;8.33;74.53
45327;BME280;31062;49.678;24.560;2022-11-15T13:08:52;98093.63;;;8.94;73.99
45327;BME280;31062;49.678;24.560;2022-11-15T13:11:45;98064.84;;;8.97;74.03
45327;BME280;31062;49.678;24.560;2022-11-15T13:14:45;98081.59;;;8.99;73.83
45327;BME280;31062;49.678;24.560;2022-11-15T13:23:12;98061.84;;;9.02;73.94
45327;BME280;31062;49.678;24.560;2022-11-15T13:26:14;98065.81;;;9.09;73.72
45327;BME280;31062;49.678;24.560;2022-11-15T13:29:03;98015.00;;;9.05;74.00
45327;BME280;31062;49.678;24.560;2022-11-15T13:31:48;97841.31;;;7.80;73.10
45327;BME280;31062;49.678;24.560;2022-11-15T13:34:34;97866.84;;;8.06;73.08
45327;BME280;31062;49.678;24.560;2022-11-15T13:37:38;97829.16;;;7.84;73.42
45327;BME280;31062;49.678;24.560;2022-11-15T13:40:34;97963.22;;;8.71;73.40
45327;BME280;31062;49.678;24.560;2022-11-15T13:43:34;97881.63;;;8.18;73.46
45327;BME280;31062;49.678;24.560;2022-11-15T13:46:29;98032.22;;;9.13;73.01
45327;BME280;31062;49.678;24.560;2022-11-15T13:49:14;97846.22;;;7.90;72.99
45327;BME280;31062;49.678;24.560;2022-11-15T13:52:04;98034.84;;;9.11;73.03
45327;BME280;31062;49.678;24.560;2022-11-15T13:55:04;97830.63;;;7.85;72.89
45327;BME280;31062;49.678;24.560;2022-11-15T13:57:57;98024.75;;;9.06;72.87
45327;BME280;31062;49.678;24.560;2022-11-15T14:00:46;98005.97;;;9.04;73.07
45327;BME280;31062;49.678;24.560;2022-11-15T14:03:34;97972.34;;;8.81;73.30
45327;BME280;31062;49.678;24.560;2022-11-15T14:06:26;97998.50;;;8.97;73.42
45327;BME280;31062;49.678;24.560;2022-11-15T14:09:38;97825.91;;;7.77;72.84
45327;BME280;31062;49.678;24.560;2022-11-15T14:15:36;97996.63;;;8.99;73.46
45327;BME280;31062;49.678;24.560;2022-11-15T14:18:42;98004.19;;;8.99;73.28
45327;BME280;31062;49.678;24.560;2022-11-15T14:21:29;97939.25;;;8.56;73.21
45327;BME280;31062;49.678;24.560;2022-11-15T14:24:19;97906.69;;;8.37;73.11
45327;BME280;31062;49.678;24.560;2022-11-15T14:27:27;97975.72;;;8.89;73.39
45327;BME280;31062;49.678;24.560;2022-11-15T14:30:17;98004.75;;;8.97;73.51
45327;BME280;31062;49.678;24.560;2022-11-15T14:33:18;97991.34;;;8.77;73.33
45327;BME280;31062;49.678;24.560;2022-11-15T14:36:17;97999.81;;;8.79;73.44
45327;BME280;31062;49.678;24.560;2022-11-15T14:39:03;97817.91;;;7.47;73.61
45327;BME280;31062;49.678;24.560;2022-11-15T14:41:50;97962.59;;;8.45;73.89
45327;BME280;31062;49.678;24.560;2022-11-15T14:44:36;97990.03;;;8.60;73.86
45327;BME280;31062;49.678;24.560;2022-11-15T14:47:24;97843.16;;;7.61;73.64
45327;BME280;31062;49.678;24.560;2022-11-15T14:50:13;97984.53;;;8.60;73.86
45327;BME280;31062;49.678;24.560;2022-11-15T14:52:59;97793.00;;;7.13;74.19
45327;BME280;31062;49.678;24.560;2022-11-15T14:55:45;97933.44;;;8.10;73.94
45327;BME280;31062;49.678;24.560;2022-11-15T14:58:30;97990.22;;;8.45;73.86
45327;BME280;31062;49.678;24.560;2022-11-15T15:01:26;97988.97;;;8.39;73.74
45327;BME280;31062;49.678;24.560;2022-11-15T15:04:11;97976.84;;;8.34;74.02
45327;BME280;31062;49.678;24.560;2022-11-15T15:06:57;97983.41;;;8.22;74.01
45327;BME280;31062;49.678;24.560;2022-11-15T15:09:43;97785.75;;;7.00;73.90
45327;BME280;31062;49.678;24.560;2022-11-15T17:20:44;97910.81;;;5.41;84.27
45327;BME280;31062;49.678;24.560;2022-11-15T17:23:31;97909.16;;;5.61;83.50
45327;BME280;31062;49.678;24.560;2022-11-15T17:26:18;97896.69;;;5.75;83.45
45327;BME280;31062;49.678;24.560;2022-11-15T17:29:24;69653.78;;;-143.01;100.00
45327;BME280;31062;49.678;24.560;2022-11-15T17:32:11;69653.78;;;-143.01;100.00
45327;BME280;31062;49.678;24.560;2022-11-15T17:34:56;69653.78;;;-143.01;100.00
45327;BME280;31062;49.678;24.560;2022-11-15T17:37:42;69653.78;;;-143.01;100.00
45327;BME280;31062;49.678;24.560;2022-11-15T17:40:28;69653.78;;;-143.01;100.00
45327;BME280;31062;49.678;24.560;2022-11-15T17:43:14;69653.78;;;-143.01;100.00
45327;BME280;31062;49.678;24.560;2022-11-15T17:46:05;69653.78;;;-143.01;100.00
45327;BME280;31062;49.678;24.560;2022-11-15T17:48:50;69653.78;;;-143.01;100.00
45327;BME280;31062;49.678;24.560;2022-11-15T17:51:36;69653.78;;;-143.01;100.00
45327;BME280;31062;49.678;24.560;2022-11-15T17:54:21;69653.78;;;-143.01;100.00
45327;BME280;31062;49.678;24.560;2022-11-15T17:57:07;69653.78;;;-143.01;100.00
45327;BME280;31062;49.678;24.560;2022-11-15T17:59:52;69653.78;;;-143.01;100.00
45327;BME280;31062;49.678;24.560;2022-11-15T18:02:38;69653.78;;;-143.01;100.00
45327;BME280;31062;49.678;24.560;2022-11-15T18:05:23;69653.78;;;-143.01;100.00
45327;BME280;31062;49.678;24.560;2022-11-15T18:08:10;69653.78;;;-143.01;100.00
45327;BME280;31062;49.678;24.560;2022-11-15T18:11:06;69653.78;;;-143.01;100.00
45327;BME280;31062;49.678;24.560;2022-11-15T18:13:55;69653.78;;;-143.01;100.00
45327;BME280;31062;49.678;24.560;2022-11-15T18:16:41;69653.78;;;-143.01;100.00
45327;BME280;31062;49.678;24.560;2022-11-15T18:19:27;69653.78;;;-143.01;100.00
45327;BME280;31062;49.678;24.560;2022-11-15T18:22:12;69653.78;;;-143.01;100.00
45327;BME280;31062;49.678;24.560;2022-11-15T18:24:58;69653.78;;;-143.01;100.00
45327;BME280;31062;49.678;24.560;2022-11-15T18:27:43;69653.78;;;-143.01;100.00
45327;BME280;31062;49.678;24.560;2022-11-15T18:30:29;69653.78;;;-143.01;100.00
45327;BME280;31062;49.678;24.560;2022-11-15T18:33:15;69653.78;;;-143.01;100.00
45327;BME280;31062;49.678;24.560;2022-11-15T18:36:02;69653.78;;;-143.01;100.00
45327;BME280;31062;49.678;24.560;2022-11-15T18:38:56;69653.78;;;-143.01;100.00
45327;BME280;31062;49.678;24.560;2022-11-15T18:41:43;69653.78;;;-143.01;100.00
45327;BME280;31062;49.678;24.560;2022-11-15T18:44:31;69653.78;;;-143.01;100.00
45327;BME280;31062;49.678;24.560;2022-11-15T18:47:16;69653.78;;;-143.01;100.00
45327;BME280;31062;49.678;24.560;2022-11-15T18:50:02;69653.78;;;-143.01;100.00
45327;BME280;31062;49.678;24.560;2022-11-15T18:52:47;69653.78;;;-143.01;100.00
45327;BME280;31062;49.678;24.560;2022-11-15T18:55:33;69653.78;;;-143.01;100.00
45327;BME280;31062;49.678;24.560;2022-11-15T18:58:18;69653.78;;;-143.01;100.00
45327;BME280;31062;49.678;24.560;2022-11-15T19:01:06;69653.78;;;-143.01;100.00
45327;BME280;31062;49.678;24.560;2022-11-15T19:03:53;69653.78;;;-143.01;100.00
45327;BME280;31062;49.678;24.560;2022-11-15T19:06:42;69653.78;;;-143.01;100.00
45327;BME280;31062;49.678;24.560;2022-11-15T19:09:28;69653.78;;;-143.01;100.00
45327;BME280;31062;49.678;24.560;2022-11-15T19:12:17;69653.78;;;-143.01;100.00
45327;BME280;31062;49.678;24.560;2022-11-15T19:15:02;69653.78;;;-143.01;100.00
45327;BME280;31062;49.678;24.560;2022-11-15T19:17:54;69653.78;;;-143.01;100.00
45327;BME280;31062;49.678;24.560;2022-11-15T19:20:39;69653.78;;;-143.01;100.00
45327;BME280;31062;49.678;24.560;2022-11-15T19:23:26;69653.78;;;-143.01;100.00
45327;BME280;31062;49.678;24.560;2022-11-15T19:26:12;69653.78;;;-143.01;100.00
45327;BME280;31062;49.678;24.560;2022-11-15T19:29:00;69653.78;;;-143.01;100.00
45327;BME280;31062;49.678;24.560;2022-11-15T19:31:46;69653.78;;;-143.01;100.00